Terminal Aerodrome Forecast
Issued by NWS

Home | Current Version | Previous Version | Text Only | Print | Product List | Glossary On
Versions: 1 2 3 4 5 6 7 8 9 10 11 12 13 14 15 16 17 18 19 20 21 22 23 24 25 26 27 28 29 30
000
FTAK31 PANC 211120
TAFADQ
TAF
PADQ 211120Z 2112/2212 31008KT 6SM -SN OVC035
      TEMPO 2112/2114 2SM -SN BR BKN015
     FM211400 29010KT P6SM VCSH SCT035 BKN060
     FM211700 29015KT P6SM SCT050 BKN100=

USA.gov is the U.S. government's official web portal to all federal, state and local government web resources and services.